createdAt,value
2023-04-17T00:01:48.171Z,18.80
2023-04-17T00:04:52.899Z,21.05
2023-04-17T00:07:57.188Z,20.65
2023-04-17T00:11:07.710Z,16.55
2023-04-17T00:14:13.853Z,16.98
2023-04-17T00:17:20.682Z,20.45
2023-04-17T00:20:24.309Z,23.30
2023-04-17T00:23:28.113Z,20.73
2023-04-17T00:26:34.685Z,16.35
2023-04-17T00:29:39.696Z,16.00
2023-04-17T00:32:44.476Z,16.27
2023-04-17T00:35:47.961Z,14.75
2023-04-17T00:38:51.888Z,17.23
2023-04-17T00:41:59.222Z,16.50
2023-04-17T00:45:07.109Z,20.23
2023-04-17T00:48:11.184Z,11.65
2023-04-17T00:51:14.889Z,21.17
2023-04-17T00:54:19.269Z,16.88
2023-04-17T00:57:25.478Z,18.67
2023-04-17T01:00:32.033Z,15.27
2023-04-17T01:03:38.039Z,13.85
2023-04-17T01:06:47.243Z,16.95
2023-04-17T01:09:51.101Z,18.25
2023-04-17T01:13:05.550Z,17.15
2023-04-17T01:16:14.761Z,11.73
2023-04-17T01:19:18.810Z,15.95
2023-04-17T01:22:23.429Z,16.02
2023-04-17T01:25:33.688Z,17.10
2023-04-17T01:28:41.577Z,21.23
2023-04-17T01:31:45.359Z,17.10
2023-04-17T01:34:48.984Z,15.98
2023-04-17T01:37:52.776Z,15.23
2023-04-17T01:41:08.379Z,14.02
2023-04-17T01:44:12.019Z,16.38
2023-04-17T01:47:19.475Z,16.88
2023-04-17T01:50:25.751Z,18.50
2023-04-17T01:53:49.933Z,15.00
2023-04-17T01:56:55.237Z,17.50
2023-04-17T01:59:58.702Z,15.77
2023-04-17T02:03:06.209Z,14.70
2023-04-17T02:06:10.089Z,12.15
2023-04-17T02:09:15.016Z,15.50
2023-04-17T02:12:20.072Z,15.15
2023-04-17T02:15:23.929Z,18.35
2023-04-17T02:18:28.714Z,15.90
2023-04-17T02:21:35.742Z,20.65
2023-04-17T02:24:43.410Z,13.55
2023-04-17T02:27:49.856Z,18.33
2023-04-17T02:30:53.742Z,20.38
2023-04-17T02:33:57.311Z,17.17
2023-04-17T02:37:01.648Z,17.42
2023-04-17T02:40:07.231Z,18.38
2023-04-17T02:43:14.850Z,18.70
2023-04-17T02:46:18.571Z,19.33
2023-04-17T02:49:24.823Z,22.17
2023-04-17T02:52:29.669Z,28.55
2023-04-17T02:55:33.547Z,24.52
2023-04-17T02:58:48.718Z,21.67
2023-04-17T03:01:52.575Z,19.67
2023-04-17T03:04:59.546Z,20.50
2023-04-17T03:08:17.218Z,26.02
2023-04-17T03:11:23.368Z,20.83
2023-04-17T03:14:28.449Z,21.85
2023-04-17T03:17:38.531Z,20.48
2023-04-17T03:20:55.580Z,26.25
2023-04-17T03:24:03.179Z,20.27
2023-04-17T03:27:16.216Z,22.15
2023-04-17T03:30:47.615Z,24.25
2023-04-17T03:33:52.378Z,21.88
2023-04-17T03:36:58.989Z,21.98
2023-04-17T03:40:02.653Z,24.95
2023-04-17T03:43:09.006Z,25.42
2023-04-17T03:46:14.779Z,23.63
2023-04-17T03:49:18.981Z,24.67
2023-04-17T03:52:25.226Z,28.83
2023-04-17T03:55:35.481Z,22.63
2023-04-17T03:58:41.645Z,20.75
2023-04-17T04:01:49.327Z,28.20
2023-04-17T04:05:02.984Z,26.20
2023-04-17T04:08:09.139Z,20.33
2023-04-17T04:11:23.486Z,21.58
2023-04-17T04:14:27.497Z,22.30
2023-04-17T04:17:33.172Z,22.42
2023-04-17T04:20:36.944Z,27.65
2023-04-17T04:23:51.174Z,24.20
2023-04-17T04:27:05.423Z,20.52
2023-04-17T04:30:13.338Z,22.48
2023-04-17T04:33:21.763Z,20.75
2023-04-17T04:36:31.531Z,25.73
2023-04-17T04:40:02.123Z,20.40
2023-04-17T04:43:07.006Z,24.95
2023-04-17T04:46:21.391Z,18.88
2023-04-17T04:49:28.295Z,19.67
2023-04-17T04:52:35.249Z,21.73
2023-04-17T04:55:55.463Z,16.00
2023-04-17T04:59:02.343Z,22.35
2023-04-17T05:02:09.578Z,18.35
2023-04-17T05:05:19.228Z,19.88
2023-04-17T05:08:23.238Z,16.35
2023-04-17T05:11:41.429Z,24.20
2023-04-17T05:14:44.989Z,25.75
2023-04-17T05:17:50.540Z,26.52
2023-04-17T05:20:58.796Z,19.73
2023-04-17T05:24:04.971Z,24.95
2023-04-17T05:27:09.698Z,22.45
2023-04-17T05:30:17.883Z,26.10
2023-04-17T05:33:25.975Z,21.42
2023-04-17T05:36:35.125Z,20.83
2023-04-17T05:39:41.915Z,31.52
2023-04-17T05:42:46.815Z,25.80
2023-04-17T05:45:51.055Z,24.95
2023-04-17T05:48:58.141Z,22.02
2023-04-17T05:52:03.897Z,24.98
2023-04-17T05:55:08.322Z,25.02
2023-04-17T06:01:23.457Z,26.65
2023-04-17T06:04:32.543Z,23.45
2023-04-17T06:07:38.711Z,29.20
2023-04-17T06:10:56.276Z,26.83
2023-04-17T06:14:00.267Z,22.38
2023-04-17T06:17:04.627Z,27.25
2023-04-17T06:20:14.642Z,29.20
2023-04-17T06:23:21.551Z,23.33
2023-04-17T06:26:29.536Z,27.63
2023-04-17T06:29:33.786Z,28.48
2023-04-17T06:32:43.636Z,26.38
2023-04-17T06:35:47.684Z,25.80
2023-04-17T06:39:23.322Z,29.02
2023-04-17T06:42:37.122Z,26.63
2023-04-17T06:45:44.188Z,23.02
2023-04-17T06:48:52.197Z,33.08
2023-04-17T06:51:55.722Z,27.42
2023-04-17T06:55:03.727Z,29.30
2023-04-17T06:58:09.133Z,26.25
2023-04-17T07:01:12.806Z,25.10
2023-04-17T07:04:18.035Z,29.25
2023-04-17T07:07:21.891Z,24.58
2023-04-17T07:10:32.191Z,27.35
2023-04-17T07:13:37.533Z,25.65
2023-04-17T07:16:41.035Z,24.30
2023-04-17T07:19:45.545Z,33.38
2023-04-17T07:22:52.335Z,24.10
2023-04-17T07:25:58.380Z,23.90
2023-04-17T07:29:06.649Z,27.83
2023-04-17T07:32:12.604Z,22.67
2023-04-17T07:35:16.657Z,30.13
2023-04-17T07:38:23.359Z,21.83
2023-04-17T07:41:28.339Z,21.85
2023-04-17T07:44:33.995Z,21.50
2023-04-17T07:47:37.837Z,23.88
2023-04-17T07:50:42.403Z,25.27
2023-04-17T07:53:46.065Z,28.50
2023-04-17T07:56:51.256Z,23.80
2023-04-17T07:59:55.857Z,24.80
2023-04-17T08:02:59.699Z,22.50
2023-04-17T08:06:03.661Z,20.38
2023-04-17T08:09:07.298Z,21.10
2023-04-17T08:12:12.577Z,23.08
2023-04-17T08:15:21.221Z,25.92
2023-04-17T08:18:24.994Z,22.50
2023-04-17T08:21:30.147Z,17.92
2023-04-17T08:24:34.536Z,17.25
2023-04-17T08:27:40.791Z,29.40
2023-04-17T08:30:48.989Z,19.05
2023-04-17T08:34:06.659Z,18.83
2023-04-17T08:37:30.865Z,25.13
2023-04-17T08:40:38.107Z,17.33
2023-04-17T08:43:43.552Z,23.13
2023-04-17T08:46:52.466Z,20.40
2023-04-17T08:49:57.993Z,20.95
2023-04-17T08:53:02.760Z,20.98
2023-04-17T08:56:08.913Z,23.20
2023-04-17T08:59:20.627Z,18.85
2023-04-17T09:02:27.722Z,18.90
2023-04-17T09:05:33.658Z,24.08
2023-04-17T09:08:37.794Z,16.35
2023-04-17T09:11:41.321Z,18.98
2023-04-17T09:14:46.681Z,22.42
2023-04-17T09:17:53.023Z,20.33
2023-04-17T09:20:57.555Z,17.85
2023-04-17T09:24:02.275Z,17.05
2023-04-17T09:27:20.740Z,18.15
2023-04-17T09:30:28.446Z,23.92
2023-04-17T09:33:32.067Z,20.23
2023-04-17T09:36:38.540Z,17.88
2023-04-17T09:39:56.540Z,17.15
2023-04-17T09:43:00.671Z,19.25
2023-04-17T09:46:09.151Z,16.73
2023-04-17T09:49:22.522Z,15.05
2023-04-17T09:52:26.017Z,13.23
2023-04-17T09:55:33.481Z,16.95
2023-04-17T09:58:37.342Z,16.33
2023-04-17T10:01:44.362Z,14.63
2023-04-17T10:04:50.338Z,14.57
2023-04-17T10:07:54.641Z,11.00
2023-04-17T10:11:04.848Z,15.63
2023-04-17T10:14:11.460Z,16.38
2023-04-17T10:17:28.349Z,13.07
2023-04-17T10:20:39.268Z,14.65
2023-04-17T10:23:45.133Z,14.70
2023-04-17T10:26:50.810Z,10.90
2023-04-17T10:29:55.989Z,8.98
2023-04-17T10:33:27.824Z,9.40
2023-04-17T10:36:54.760Z,17.08
2023-04-17T10:40:02.632Z,7.95
2023-04-17T10:43:09.650Z,9.00
2023-04-17T10:46:15.491Z,12.90
2023-04-17T10:49:23.020Z,7.70
2023-04-17T10:52:40.584Z,10.23
2023-04-17T10:55:51.324Z,12.93
2023-04-17T10:58:58.869Z,7.70
2023-04-17T11:02:06.833Z,12.88
2023-04-17T11:05:13.576Z,8.07
2023-04-17T11:08:18.073Z,18.80
2023-04-17T11:11:35.203Z,8.38
2023-04-17T11:14:48.446Z,10.57
2023-04-17T11:17:52.168Z,11.15
2023-04-17T11:20:58.954Z,10.43
2023-04-17T11:24:07.128Z,12.68
2023-04-17T11:27:21.450Z,8.95
2023-04-17T11:30:31.909Z,11.45
2023-04-17T11:33:41.814Z,10.45
2023-04-17T11:36:52.480Z,13.20
2023-04-17T11:40:07.615Z,10.40
2023-04-17T11:43:12.114Z,11.70
2023-04-17T11:46:16.197Z,10.63
2023-04-17T11:49:27.225Z,9.02
2023-04-17T11:52:38.479Z,12.48
2023-04-17T11:55:45.310Z,7.82
2023-04-17T11:58:50.412Z,8.63
2023-04-17T12:01:54.354Z,10.20
2023-04-17T12:05:17.915Z,9.73
2023-04-17T12:08:24.288Z,14.02
2023-04-17T12:11:32.678Z,13.32
2023-04-17T12:14:36.193Z,12.70
2023-04-17T12:17:45.138Z,7.72
2023-04-17T12:20:48.886Z,8.57
2023-04-17T12:23:56.256Z,11.50
2023-04-17T12:27:01.786Z,11.60
2023-04-17T12:30:07.719Z,13.88
2023-04-17T12:33:11.236Z,12.90
2023-04-17T12:36:15.203Z,14.32
2023-04-17T12:39:23.004Z,8.80
2023-04-17T12:42:33.685Z,9.43
2023-04-17T12:45:45.812Z,8.38
2023-04-17T12:48:55.653Z,7.40
2023-04-17T12:52:01.033Z,7.53
2023-04-17T12:55:13.399Z,8.52
2023-04-17T12:58:18.425Z,7.78
2023-04-17T13:01:27.375Z,7.57
2023-04-17T13:04:31.169Z,7.45
2023-04-17T13:07:34.600Z,7.68
2023-04-17T13:10:44.528Z,5.60
2023-04-17T13:13:50.508Z,6.28
2023-04-17T13:16:54.095Z,6.15
2023-04-17T13:20:01.545Z,5.55
2023-04-17T13:23:19.158Z,4.72
2023-04-17T13:26:24.087Z,5.03
2023-04-17T13:29:29.655Z,5.45
2023-04-17T13:32:35.790Z,4.88
2023-04-17T13:35:43.228Z,4.40
2023-04-17T13:38:49.428Z,5.70
2023-04-17T13:41:57.579Z,5.20
2023-04-17T13:45:03.093Z,9.00
2023-04-17T13:48:09.159Z,12.02
2023-04-17T13:51:13.197Z,7.05
2023-04-17T13:54:19.364Z,7.50
2023-04-17T13:57:26.448Z,7.75
2023-04-17T14:00:29.838Z,8.88
2023-04-17T14:03:33.827Z,7.03
2023-04-17T14:06:39.617Z,9.15
2023-04-17T14:09:43.332Z,9.57
2023-04-17T14:12:53.153Z,13.80
2023-04-17T14:15:59.198Z,8.18
2023-04-17T14:19:13.452Z,10.55
2023-04-17T14:22:22.095Z,11.63
2023-04-17T14:25:28.364Z,10.18
2023-04-17T14:28:34.490Z,10.50
2023-04-17T14:31:41.429Z,26.83
2023-04-17T14:35:01.541Z,12.75
2023-04-17T14:38:07.188Z,11.02
2023-04-17T14:41:10.670Z,13.18
2023-04-17T14:44:18.908Z,11.88
2023-04-17T14:47:28.729Z,12.32
2023-04-17T14:50:38.175Z,15.02
2023-04-17T14:53:42.584Z,16.17
2023-04-17T14:56:47.282Z,15.13
2023-04-17T14:59:57.500Z,13.15
2023-04-17T15:03:02.675Z,9.25
2023-04-17T15:06:06.349Z,9.38
2023-04-17T15:09:11.221Z,12.15
2023-04-17T15:12:15.122Z,14.43
2023-04-17T15:15:20.365Z,13.80
2023-04-17T15:18:24.358Z,13.50
2023-04-17T15:21:28.416Z,11.73
2023-04-17T15:24:33.192Z,8.63
2023-04-17T15:27:37.398Z,11.77
2023-04-17T15:30:42.597Z,10.75
2023-04-17T15:33:47.491Z,12.70
2023-04-17T15:36:51.353Z,10.45
2023-04-17T15:39:54.736Z,9.52
2023-04-17T15:42:59.017Z,16.02
2023-04-17T15:46:05.094Z,9.50
2023-04-17T15:49:09.368Z,8.82
2023-04-17T15:52:13.589Z,13.75
2023-04-17T15:55:18.730Z,14.05
2023-04-17T15:58:23.115Z,12.82
2023-04-17T16:01:28.790Z,10.93
2023-04-17T16:04:32.562Z,11.95
2023-04-17T16:07:37.506Z,9.43
2023-04-17T16:10:41.662Z,9.38
2023-04-17T16:13:45.307Z,11.52
2023-04-17T16:16:50.571Z,7.93
2023-04-17T16:19:55.342Z,8.52
2023-04-17T16:22:59.012Z,7.35
2023-04-17T16:26:02.541Z,10.13
2023-04-17T16:29:06.320Z,9.77
2023-04-17T16:32:14.304Z,8.02
2023-04-17T16:35:18.205Z,10.23
2023-04-17T16:38:22.075Z,8.18
2023-04-17T16:41:26.474Z,8.70
2023-04-17T16:44:30.737Z,8.88
2023-04-17T16:47:36.004Z,9.90
2023-04-17T16:50:39.950Z,8.85
2023-04-17T16:53:44.246Z,7.78
2023-04-17T16:56:48.522Z,12.25
2023-04-17T16:59:52.151Z,7.72
2023-04-17T17:03:00.072Z,7.30
2023-04-17T17:06:04.458Z,8.95
2023-04-17T17:09:09.779Z,7.07
2023-04-17T17:12:14.693Z,7.63
2023-04-17T17:15:19.642Z,7.05
2023-04-17T17:18:26.126Z,5.38
2023-04-17T17:21:31.492Z,10.60
2023-04-17T17:24:34.914Z,7.68
2023-04-17T17:27:40.677Z,10.55
2023-04-17T17:30:44.355Z,7.03
2023-04-17T17:33:54.039Z,7.93
2023-04-17T17:36:58.777Z,9.20
2023-04-17T17:40:04.329Z,8.25
2023-04-17T17:43:08.084Z,8.32
2023-04-17T17:46:11.916Z,7.65
2023-04-17T17:49:18.057Z,7.88
2023-04-17T17:52:23.833Z,14.77
2023-04-17T17:55:28.387Z,6.53
2023-04-17T17:58:31.880Z,7.70
2023-04-17T18:01:36.474Z,7.88
2023-04-17T18:04:42.271Z,10.07
2023-04-17T18:07:46.138Z,9.00
2023-04-17T18:10:50.939Z,7.50
2023-04-17T18:13:54.840Z,12.00
2023-04-17T18:16:59.880Z,8.70
2023-04-17T18:20:04.757Z,15.18
2023-04-17T18:23:14.552Z,9.48
2023-04-17T18:26:19.275Z,9.10
2023-04-17T18:29:23.841Z,9.43
2023-04-17T18:32:27.888Z,7.53
2023-04-17T18:35:33.415Z,10.30
2023-04-17T18:38:37.758Z,10.23
2023-04-17T18:41:41.828Z,11.18
2023-04-17T18:44:47.595Z,10.63
2023-04-17T18:47:50.943Z,9.05
2023-04-17T18:50:56.049Z,13.13
2023-04-17T18:54:00.710Z,12.63
2023-04-17T18:57:04.476Z,11.07
2023-04-17T19:00:10.152Z,11.23
2023-04-17T19:03:13.808Z,11.48
2023-04-17T19:06:19.843Z,9.98
2023-04-17T19:09:23.629Z,9.98
2023-04-17T19:12:27.145Z,8.93
2023-04-17T19:15:31.843Z,13.40
2023-04-17T19:18:35.446Z,23.00
2023-04-17T19:21:42.180Z,15.38
2023-04-17T19:24:49.490Z,10.95
2023-04-17T19:27:53.436Z,12.52
2023-04-17T19:30:57.699Z,14.38
2023-04-17T19:34:03.017Z,12.38
2023-04-17T19:37:09.165Z,12.45
2023-04-17T19:40:24.442Z,12.15
2023-04-17T19:43:30.362Z,11.15
2023-04-17T19:46:34.019Z,18.15
2023-04-17T19:49:39.132Z,16.58
2023-04-17T19:52:43.785Z,12.40
2023-04-17T19:55:47.448Z,11.48
2023-04-17T19:58:54.059Z,14.07
2023-04-17T20:01:57.824Z,17.83
2023-04-17T20:05:01.623Z,14.48
2023-04-17T20:08:09.239Z,14.25
2023-04-17T20:11:12.913Z,11.73
2023-04-17T20:14:17.332Z,14.52
2023-04-17T20:17:21.433Z,13.95
2023-04-17T20:20:25.117Z,18.83
2023-04-17T20:23:31.925Z,13.43
2023-04-17T20:26:37.242Z,11.90
2023-04-17T20:29:41.020Z,11.35
2023-04-17T20:32:48.031Z,14.57
2023-04-17T20:35:51.610Z,11.60
2023-04-17T20:38:56.849Z,9.82
2023-04-17T20:42:01.664Z,12.20
2023-04-17T20:45:06.821Z,14.68
2023-04-17T20:48:10.921Z,12.95
2023-04-17T20:51:14.549Z,10.55
2023-04-17T20:54:19.848Z,10.23
2023-04-17T20:57:25.079Z,10.55
2023-04-17T21:00:29.919Z,15.55
2023-04-17T21:03:34.207Z,9.60
2023-04-17T21:06:37.944Z,9.77
2023-04-17T21:09:43.827Z,9.50
2023-04-17T21:12:48.624Z,4.55
2023-04-17T21:15:53.621Z,7.38
2023-04-17T21:18:57.268Z,7.38
2023-04-17T21:22:01.540Z,5.30
2023-04-17T21:25:07.882Z,7.20
2023-04-17T21:28:11.630Z,4.32
2023-04-17T21:31:16.988Z,3.50
2023-04-17T21:34:20.677Z,3.88
2023-04-17T21:37:24.359Z,3.90
2023-04-17T21:40:33.406Z,5.60
2023-04-17T21:43:37.572Z,7.70
2023-04-17T21:46:42.472Z,5.20
2023-04-17T21:49:47.832Z,3.92
2023-04-17T21:52:51.379Z,5.88
2023-04-17T21:55:58.576Z,5.40
2023-04-17T21:59:05.356Z,9.43
2023-04-17T22:02:10.667Z,8.52
2023-04-17T22:05:14.830Z,13.43
2023-04-17T22:08:21.693Z,8.38
2023-04-17T22:11:27.602Z,19.73
2023-04-17T22:14:33.747Z,13.02
2023-04-17T22:17:39.803Z,10.57
2023-04-17T22:20:44.763Z,11.80
2023-04-17T22:23:49.378Z,14.52
2023-04-17T22:26:55.052Z,17.15
2023-04-17T22:29:59.521Z,17.67
2023-04-17T22:33:05.413Z,12.18
2023-04-17T22:36:09.721Z,10.55
2023-04-17T22:39:13.507Z,14.82
2023-04-17T22:42:19.689Z,16.48
2023-04-17T22:45:28.290Z,14.43
2023-04-17T22:48:32.818Z,10.20
2023-04-17T22:51:38.564Z,15.18
2023-04-17T22:54:42.163Z,15.25
2023-04-17T22:57:48.971Z,9.80
2023-04-17T23:00:55.748Z,15.82
2023-04-17T23:03:59.619Z,13.07
2023-04-17T23:07:03.275Z,11.20
2023-04-17T23:10:08.132Z,15.07
2023-04-17T23:13:14.892Z,11.35
2023-04-17T23:16:18.701Z,13.77
2023-04-17T23:19:22.526Z,10.98
2023-04-17T23:22:26.215Z,12.57
2023-04-17T23:25:31.093Z,11.88
2023-04-17T23:28:36.134Z,11.77
2023-04-17T23:31:39.844Z,14.52
2023-04-17T23:34:44.642Z,15.93
2023-04-17T23:37:53.293Z,17.88
2023-04-17T23:40:57.636Z,13.88
2023-04-17T23:44:04.907Z,13.23
2023-04-17T23:47:08.469Z,13.38
2023-04-17T23:50:12.482Z,13.30
2023-04-17T23:53:19.380Z,15.63
2023-04-17T23:56:23.765Z,15.05
2023-04-17T23:59:29.946Z,17.88
